createdAt,value
2022-09-10T00:00:26.331Z,0.40
2022-09-10T00:02:53.030Z,0.40
2022-09-10T00:05:19.551Z,0.30
2022-09-10T00:07:46.029Z,0.50
2022-09-10T00:10:12.519Z,0.60
2022-09-10T00:12:40.338Z,0.50
2022-09-10T00:15:07.646Z,0.27
2022-09-10T00:17:34.142Z,0.53
2022-09-10T00:20:00.614Z,0.30
2022-09-10T00:22:27.195Z,0.40
2022-09-10T00:24:54.449Z,0.50
2022-09-10T00:27:21.581Z,0.47
2022-09-10T00:29:53.085Z,0.50
2022-09-10T00:32:19.799Z,0.40
2022-09-10T00:34:46.267Z,0.50
2022-09-10T00:37:12.730Z,0.40
2022-09-10T00:39:39.203Z,0.50
2022-09-10T00:42:05.937Z,0.50
2022-09-10T00:44:58.639Z,0.33
2022-09-10T00:47:28.678Z,0.40
2022-09-10T00:49:58.236Z,0.47
2022-09-10T00:52:25.035Z,0.43
2022-09-10T00:54:51.646Z,0.40
2022-09-10T00:57:21.741Z,0.40
2022-09-10T00:59:52.948Z,0.37
2022-09-10T01:02:20.791Z,0.30
2022-09-10T01:04:47.794Z,0.30
2022-09-10T01:07:15.437Z,0.40
2022-09-10T01:09:42.768Z,0.30
2022-09-10T01:12:21.485Z,0.30
2022-09-10T01:15:03.721Z,0.33
2022-09-10T01:17:43.731Z,0.50
2022-09-10T01:20:25.811Z,0.40
2022-09-10T01:23:15.690Z,0.30
2022-09-10T01:25:52.540Z,0.40
2022-09-10T01:28:27.305Z,0.43
2022-09-10T01:31:00.518Z,0.60
2022-09-10T01:33:33.936Z,0.43
2022-09-10T01:36:04.686Z,0.30
2022-09-10T01:38:33.285Z,0.40
2022-09-10T01:41:00.014Z,0.50
2022-09-10T01:43:28.227Z,0.47
2022-09-10T01:46:11.746Z,0.50
2022-09-10T01:48:57.347Z,0.60
2022-09-10T01:51:32.494Z,0.30
2022-09-10T01:54:10.947Z,0.40
2022-09-10T01:56:43.535Z,0.40
2022-09-10T01:59:20.779Z,0.43
2022-09-10T02:01:50.132Z,0.60
2022-09-10T02:04:19.241Z,0.50
2022-09-10T02:06:48.349Z,0.53
2022-09-10T02:09:15.913Z,0.40
2022-09-10T02:11:46.903Z,0.70
2022-09-10T02:14:15.260Z,0.40
2022-09-10T02:16:47.549Z,0.57
2022-09-10T02:19:15.662Z,0.40
2022-09-10T02:21:42.418Z,0.60
2022-09-10T02:24:11.310Z,0.60
2022-09-10T02:26:40.505Z,0.57
2022-09-10T02:29:08.065Z,0.80
2022-09-10T02:31:36.214Z,0.70
2022-09-10T02:34:02.783Z,0.60
2022-09-10T02:36:29.948Z,0.60
2022-09-10T02:38:56.397Z,0.60
2022-09-10T02:41:23.279Z,0.50
2022-09-10T02:43:49.752Z,0.50
2022-09-10T02:46:16.238Z,0.60
2022-09-10T02:48:44.315Z,0.60
2022-09-10T02:51:11.351Z,0.60
2022-09-10T02:53:37.991Z,0.80
2022-09-10T02:56:05.283Z,0.40
2022-09-10T02:58:31.777Z,0.60
2022-09-10T03:01:06.112Z,0.50
2022-09-10T03:03:32.607Z,0.47
2022-09-10T03:06:00.415Z,0.60
2022-09-10T03:08:26.993Z,0.60
2022-09-10T03:10:53.510Z,0.60
2022-09-10T03:13:19.969Z,0.50
2022-09-10T03:15:46.452Z,0.50
2022-09-10T03:18:12.939Z,0.60
2022-09-10T03:20:39.408Z,0.50
2022-09-10T03:23:07.249Z,0.50
2022-09-10T03:25:33.719Z,0.60
2022-09-10T03:28:00.183Z,0.40
2022-09-10T03:30:27.455Z,0.43
2022-09-10T03:32:53.920Z,0.50
2022-09-10T03:35:20.404Z,0.60
2022-09-10T03:37:46.884Z,0.40
2022-09-10T03:40:14.876Z,0.50
2022-09-10T03:42:41.397Z,0.70
2022-09-10T03:45:08.953Z,0.53
2022-09-10T03:47:35.408Z,0.77
2022-09-10T03:50:01.885Z,0.60
2022-09-10T03:52:28.362Z,0.50
2022-09-10T03:54:54.832Z,0.40
2022-09-10T03:57:22.950Z,0.70
2022-09-10T03:59:49.444Z,0.60
2022-09-10T04:02:16.311Z,0.80
2022-09-10T04:04:42.826Z,0.57
2022-09-10T04:07:10.152Z,0.50
2022-09-10T04:09:36.660Z,0.60
2022-09-10T04:12:03.703Z,0.50
2022-09-10T04:14:31.592Z,0.60
2022-09-10T04:16:58.064Z,0.50
2022-09-10T04:19:24.564Z,0.70
2022-09-10T04:21:51.083Z,0.53
2022-09-10T04:24:17.534Z,0.63
2022-09-10T04:26:44.098Z,0.50
2022-09-10T04:29:10.637Z,0.67
2022-09-10T04:31:38.518Z,0.50
2022-09-10T04:34:04.999Z,0.50
2022-09-10T04:36:31.476Z,0.80
2022-09-10T04:38:57.941Z,0.70
2022-09-10T04:41:24.424Z,0.63
2022-09-10T04:43:51.290Z,0.60
2022-09-10T04:46:17.766Z,0.83
2022-09-10T04:48:45.609Z,0.70
2022-09-10T04:51:16.482Z,0.70
2022-09-10T04:53:43.919Z,0.90
2022-09-10T04:56:10.593Z,0.50
2022-09-10T04:58:39.163Z,0.70
2022-09-10T05:01:06.350Z,0.70
2022-09-10T05:03:32.994Z,0.60
2022-09-10T05:06:00.972Z,0.57
2022-09-10T05:08:27.473Z,0.77
2022-09-10T05:10:54.027Z,0.70
2022-09-10T05:13:20.557Z,0.60
2022-09-10T05:15:47.033Z,0.87
2022-09-10T05:18:13.532Z,0.70
2022-09-10T05:20:40.024Z,0.80
2022-09-10T05:23:07.826Z,0.77
2022-09-10T05:25:34.313Z,0.73
2022-09-10T05:28:00.933Z,0.70
2022-09-10T05:30:27.744Z,0.77
2022-09-10T05:32:54.212Z,0.90
2022-09-10T05:35:20.682Z,0.77
2022-09-10T05:37:47.158Z,0.80
2022-09-10T05:40:15.168Z,1.30
2022-09-10T05:42:41.722Z,1.10
2022-09-10T05:45:09.017Z,1.00
2022-09-10T05:47:35.521Z,1.00
2022-09-10T05:50:01.959Z,1.00
2022-09-10T05:52:28.441Z,0.97
2022-09-10T05:54:54.909Z,0.77
2022-09-10T05:57:22.768Z,1.20
2022-09-10T05:59:49.231Z,1.03
2022-09-10T06:02:18.688Z,0.90
2022-09-10T06:04:48.385Z,1.00
2022-09-10T06:07:14.895Z,1.07
2022-09-10T06:09:41.366Z,1.27
2022-09-10T06:12:07.951Z,1.00
2022-09-10T06:14:36.300Z,1.13
2022-09-10T06:17:03.027Z,0.93
2022-09-10T06:19:29.548Z,1.00
2022-09-10T06:21:56.038Z,0.97
2022-09-10T06:24:22.500Z,1.30
2022-09-10T06:26:49.110Z,0.80
2022-09-10T06:29:15.628Z,1.23
2022-09-10T06:31:43.436Z,0.87
2022-09-10T06:34:09.915Z,0.93
2022-09-10T06:36:36.389Z,0.80
2022-09-10T06:39:03.149Z,1.00
2022-09-10T06:41:29.626Z,0.97
2022-09-10T06:43:56.257Z,1.00
2022-09-10T06:47:02.897Z,0.80
2022-09-10T06:49:11.803Z,1.00
2022-09-10T06:51:38.271Z,1.30
2022-09-10T06:54:05.051Z,1.13
2022-09-10T06:56:31.543Z,0.87
2022-09-10T06:59:01.974Z,1.00
2022-09-10T07:01:29.047Z,0.90
2022-09-10T07:03:56.665Z,0.90
2022-09-10T07:06:25.651Z,1.00
2022-09-10T07:08:54.478Z,0.90
2022-09-10T07:11:21.148Z,0.80
2022-09-10T07:13:50.206Z,0.70
2022-09-10T07:16:17.732Z,0.80
2022-09-10T07:18:44.198Z,0.67
2022-09-10T07:21:12.663Z,0.60
2022-09-10T07:23:40.649Z,0.63
2022-09-10T07:26:09.720Z,0.63
2022-09-10T07:28:37.040Z,0.77
2022-09-10T07:31:12.271Z,0.60
2022-09-10T07:33:38.786Z,0.50
2022-09-10T07:36:05.353Z,0.70
2022-09-10T07:38:32.165Z,0.60
2022-09-10T07:41:00.818Z,0.67
2022-09-10T07:43:27.294Z,0.50
2022-09-10T07:45:53.796Z,0.57
2022-09-10T07:48:20.325Z,0.60
2022-09-10T07:50:46.803Z,0.63
2022-09-10T07:53:13.270Z,0.60
2022-09-10T07:55:39.726Z,0.60
2022-09-10T07:58:07.570Z,0.63
2022-09-10T08:00:34.029Z,0.73
2022-09-10T08:03:00.517Z,0.50
2022-09-10T08:05:26.991Z,0.60
2022-09-10T08:07:53.490Z,0.80
2022-09-10T08:10:20.255Z,0.63
2022-09-10T08:12:46.724Z,0.80
2022-09-10T08:15:14.531Z,0.60
2022-09-10T08:17:40.982Z,0.90
2022-09-10T08:20:08.884Z,0.50
2022-09-10T08:22:35.383Z,0.67
2022-09-10T08:25:02.209Z,0.73
2022-09-10T08:27:28.751Z,0.90
2022-09-10T08:29:55.238Z,1.10
2022-09-10T08:32:23.074Z,0.90
2022-09-10T08:34:49.614Z,0.80
2022-09-10T08:37:16.069Z,0.80
2022-09-10T08:39:42.604Z,0.60
2022-09-10T08:42:16.225Z,0.90
2022-09-10T08:44:47.846Z,0.67
2022-09-10T08:47:21.919Z,1.00
2022-09-10T08:49:53.624Z,1.10
2022-09-10T08:52:25.993Z,0.67
2022-09-10T08:54:58.565Z,0.80
2022-09-10T08:57:30.191Z,0.83
2022-09-10T08:59:59.025Z,0.80
2022-09-10T09:02:48.409Z,1.10
2022-09-10T09:05:19.312Z,1.03
2022-09-10T09:07:46.800Z,0.90
2022-09-10T09:10:20.566Z,1.10
2022-09-10T09:13:06.752Z,1.00
2022-09-10T09:15:39.593Z,1.00
2022-09-10T09:18:20.102Z,0.90
2022-09-10T09:20:50.920Z,1.10
2022-09-10T09:23:22.083Z,1.20
2022-09-10T09:25:50.863Z,1.10
2022-09-10T09:28:25.809Z,1.53
2022-09-10T09:30:53.819Z,0.90
2022-09-10T09:33:22.576Z,1.17
2022-09-10T09:35:54.072Z,1.70
2022-09-10T09:38:23.926Z,1.23
2022-09-10T09:40:53.199Z,1.10
2022-09-10T09:43:31.155Z,1.17
2022-09-10T09:45:58.299Z,1.00
2022-09-10T09:48:25.246Z,1.40
2022-09-10T09:50:57.350Z,1.00
2022-09-10T09:53:25.623Z,1.20
2022-09-10T09:55:54.908Z,1.03
2022-09-10T09:58:30.625Z,1.00
2022-09-10T10:01:10.387Z,1.17
2022-09-10T10:03:45.406Z,1.10
2022-09-10T10:06:13.295Z,1.30
2022-09-10T10:08:43.266Z,1.40
2022-09-10T10:11:13.270Z,0.97
2022-09-10T10:13:41.985Z,1.20
2022-09-10T10:16:16.421Z,0.90
2022-09-10T10:18:44.049Z,1.10
2022-09-10T10:21:17.320Z,1.10
2022-09-10T10:23:44.327Z,1.03
2022-09-10T10:26:32.510Z,0.90
2022-09-10T10:29:01.204Z,1.40
2022-09-10T10:31:40.255Z,1.10
2022-09-10T10:34:40.867Z,1.07
2022-09-10T10:37:14.593Z,1.10
2022-09-10T10:39:59.360Z,1.03
2022-09-10T10:42:30.795Z,1.30
2022-09-10T10:45:17.005Z,1.10
2022-09-10T10:47:47.476Z,1.10
2022-09-10T10:50:28.567Z,0.93
2022-09-10T10:53:13.677Z,0.70
2022-09-10T10:55:43.958Z,0.83
2022-09-10T10:58:26.327Z,1.20
2022-09-10T11:00:57.641Z,1.40
2022-09-10T11:03:27.917Z,1.37
2022-09-10T11:05:58.388Z,1.20
2022-09-10T11:08:31.965Z,1.10
2022-09-10T11:11:03.696Z,0.93
2022-09-10T11:13:36.663Z,1.07
2022-09-10T11:16:06.579Z,1.10
2022-09-10T11:18:38.815Z,1.33
2022-09-10T11:21:11.240Z,1.07
2022-09-10T11:23:46.449Z,0.83
2022-09-10T11:26:17.567Z,0.90
2022-09-10T11:28:50.898Z,1.00
2022-09-10T11:31:32.636Z,1.10
2022-09-10T11:34:04.351Z,0.73
2022-09-10T11:36:35.885Z,0.80
2022-09-10T11:39:15.970Z,0.80
2022-09-10T11:41:46.188Z,1.00
2022-09-10T11:44:24.625Z,0.77
2022-09-10T11:47:03.922Z,0.80
2022-09-10T11:49:40.106Z,0.90
2022-09-10T11:52:06.679Z,0.80
2022-09-10T11:54:35.471Z,0.80
2022-09-10T11:57:09.366Z,0.90
2022-09-10T11:59:55.499Z,0.70
2022-09-10T12:03:00.332Z,1.00
2022-09-10T12:05:33.577Z,0.80
2022-09-10T12:08:09.758Z,1.10
2022-09-10T12:10:44.121Z,0.90
2022-09-10T12:13:13.760Z,0.90
2022-09-10T12:15:40.542Z,0.80
2022-09-10T12:18:14.216Z,0.90
2022-09-10T12:20:44.240Z,1.00
2022-09-10T12:23:16.303Z,0.80
2022-09-10T12:25:44.522Z,0.80
2022-09-10T12:28:44.407Z,0.77
2022-09-10T12:31:12.647Z,1.20
2022-09-10T12:34:08.522Z,0.83
2022-09-10T12:37:14.730Z,0.90
2022-09-10T12:39:41.358Z,1.10
2022-09-10T12:42:32.754Z,0.67
2022-09-10T12:44:59.385Z,0.60
2022-09-10T12:47:42.122Z,0.70
2022-09-10T12:50:36.441Z,0.83
2022-09-10T12:53:25.921Z,0.60
2022-09-10T12:56:00.410Z,0.80
2022-09-10T12:58:43.803Z,0.60
2022-09-10T13:01:22.919Z,0.83
2022-09-10T13:03:55.183Z,0.60
2022-09-10T13:06:35.045Z,0.60
2022-09-10T13:09:04.336Z,0.80
2022-09-10T13:11:35.449Z,0.80
2022-09-10T13:14:05.648Z,0.80
2022-09-10T13:16:40.900Z,0.70
2022-09-10T13:19:47.257Z,0.50
2022-09-10T13:22:32.783Z,0.70
2022-09-10T13:25:02.449Z,0.60
2022-09-10T13:27:37.664Z,0.50
2022-09-10T13:30:16.963Z,0.63
2022-09-10T13:32:48.121Z,0.60
2022-09-10T13:35:31.215Z,0.77
2022-09-10T13:38:29.133Z,0.63
2022-09-10T13:41:19.833Z,0.80
2022-09-10T13:44:13.808Z,0.60
2022-09-10T13:46:45.118Z,0.43
2022-09-10T13:49:17.384Z,0.60
2022-09-10T13:51:49.587Z,0.50
2022-09-10T13:54:27.186Z,0.43
2022-09-10T13:56:55.029Z,0.60
2022-09-10T13:59:26.657Z,0.60
2022-09-10T14:01:55.898Z,0.50
2022-09-10T14:04:24.329Z,0.73
2022-09-10T14:06:50.889Z,0.50
2022-09-10T14:09:17.367Z,0.40
2022-09-10T14:11:44.279Z,0.60
2022-09-10T14:14:14.761Z,0.43
2022-09-10T14:16:46.149Z,0.67
2022-09-10T14:19:20.031Z,0.50
2022-09-10T14:21:47.632Z,0.67
2022-09-10T14:24:27.835Z,0.53
2022-09-10T14:27:15.816Z,0.63
2022-09-10T14:29:42.793Z,0.60
2022-09-10T14:32:17.051Z,0.43
2022-09-10T14:34:44.870Z,0.50
2022-09-10T14:37:26.353Z,0.60
2022-09-10T14:39:52.949Z,0.60
2022-09-10T14:42:25.286Z,0.57
2022-09-10T14:44:51.809Z,0.50
2022-09-10T14:47:27.207Z,0.70
2022-09-10T14:50:15.069Z,0.60
2022-09-10T14:52:41.560Z,0.60
2022-09-10T14:55:08.036Z,0.80
2022-09-10T14:57:34.529Z,0.37
2022-09-10T15:00:01.190Z,0.40
2022-09-10T15:02:28.845Z,0.50
2022-09-10T15:04:56.719Z,0.40
2022-09-10T15:07:23.220Z,0.40
2022-09-10T15:09:49.687Z,0.37
2022-09-10T15:12:21.693Z,0.40
2022-09-10T15:14:48.211Z,0.50
2022-09-10T15:17:15.708Z,0.60
2022-09-10T15:19:42.189Z,0.50
2022-09-10T15:22:19.462Z,0.40
2022-09-10T15:25:05.986Z,0.40
2022-09-10T15:27:32.412Z,0.40
2022-09-10T15:29:58.888Z,0.50
2022-09-10T15:32:25.334Z,0.47
2022-09-10T15:34:51.823Z,0.40
2022-09-10T15:37:19.620Z,0.60
2022-09-10T15:39:46.156Z,0.53
2022-09-10T15:42:12.637Z,0.37
2022-09-10T15:44:39.769Z,0.50
2022-09-10T15:47:06.420Z,0.40
2022-09-10T15:49:34.652Z,0.30
2022-09-10T15:52:01.142Z,0.30
2022-09-10T15:54:29.076Z,0.33
2022-09-10T15:56:55.559Z,0.30
2022-09-10T15:59:22.863Z,0.30
2022-09-10T16:01:49.408Z,0.37
2022-09-10T16:04:15.992Z,0.53
2022-09-10T16:06:42.468Z,0.40
2022-09-10T16:09:11.372Z,0.50
2022-09-10T16:11:40.787Z,0.40
2022-09-10T16:14:10.607Z,0.33
2022-09-10T16:16:37.559Z,0.30
2022-09-10T16:19:04.532Z,0.30
2022-09-10T16:21:33.713Z,0.20
2022-09-10T16:24:01.031Z,0.30
2022-09-10T16:26:29.445Z,0.30
2022-09-10T16:28:58.882Z,0.50
2022-09-10T16:31:27.381Z,0.30
2022-09-10T16:33:56.044Z,0.30
2022-09-10T16:36:22.939Z,0.40
2022-09-10T16:38:52.723Z,0.40
2022-09-10T16:41:19.259Z,0.30
2022-09-10T16:43:45.748Z,0.30
2022-09-10T16:46:13.939Z,0.40
2022-09-10T16:48:42.075Z,0.60
2022-09-10T16:51:10.526Z,0.60
2022-09-10T16:53:37.314Z,0.70
2022-09-10T16:56:05.445Z,0.80
2022-09-10T16:58:35.769Z,0.40
2022-09-10T17:01:03.257Z,0.60
2022-09-10T17:03:31.302Z,0.50
2022-09-10T17:05:58.819Z,0.57
2022-09-10T17:08:26.316Z,0.60
2022-09-10T17:10:53.027Z,0.73
2022-09-10T17:13:19.520Z,0.47
2022-09-10T17:15:46.160Z,0.30
2022-09-10T17:18:12.882Z,0.50
2022-09-10T17:20:41.432Z,0.40
2022-09-10T17:23:09.951Z,0.30
2022-09-10T17:25:36.710Z,0.50
2022-09-10T17:28:03.973Z,0.40
2022-09-10T17:30:30.618Z,0.80
2022-09-10T17:32:57.147Z,0.80
2022-09-10T17:35:23.790Z,1.00
2022-09-10T17:37:51.851Z,1.53
2022-09-10T17:40:18.361Z,1.07
2022-09-10T17:42:44.833Z,0.73
2022-09-10T17:45:11.315Z,0.97
2022-09-10T17:47:37.845Z,1.00
2022-09-10T17:50:05.010Z,0.83
2022-09-10T17:52:31.466Z,0.60
2022-09-10T17:54:59.309Z,0.60
2022-09-10T17:57:25.771Z,0.57
2022-09-10T17:59:52.256Z,0.60
2022-09-10T18:02:18.717Z,0.50
2022-09-10T18:04:48.605Z,0.60
2022-09-10T18:07:15.146Z,0.63
2022-09-10T18:09:41.636Z,0.80
2022-09-10T18:12:09.530Z,0.83
2022-09-10T18:14:36.162Z,1.03
2022-09-10T18:17:02.658Z,1.10
2022-09-10T18:19:29.228Z,1.10
2022-09-10T18:21:55.692Z,1.00
2022-09-10T18:24:23.594Z,0.80
2022-09-10T18:26:52.146Z,0.73
2022-09-10T18:29:22.272Z,0.80
2022-09-10T18:31:50.610Z,0.70
2022-09-10T18:34:22.798Z,0.80
2022-09-10T18:36:49.861Z,1.00
2022-09-10T18:39:16.377Z,0.90
2022-09-10T18:41:42.988Z,0.67
2022-09-10T18:44:12.598Z,1.20
2022-09-10T18:46:40.493Z,1.20
2022-09-10T18:49:06.972Z,0.80
2022-09-10T18:51:34.987Z,0.77
2022-09-10T18:54:01.899Z,0.80
2022-09-10T18:56:30.693Z,0.90
2022-09-10T18:59:00.685Z,0.90
2022-09-10T19:01:29.116Z,0.80
2022-09-10T19:03:57.638Z,0.90
2022-09-10T19:06:26.078Z,0.80
2022-09-10T19:08:54.058Z,1.30
2022-09-10T19:11:21.117Z,1.17
2022-09-10T19:13:49.121Z,1.57
2022-09-10T19:16:16.284Z,0.90
2022-09-10T19:18:42.972Z,1.03
2022-09-10T19:21:10.789Z,1.10
2022-09-10T19:23:37.302Z,1.10
2022-09-10T19:26:03.866Z,1.10
2022-09-10T19:28:31.452Z,0.80
2022-09-10T19:31:00.404Z,1.00
2022-09-10T19:33:27.043Z,0.93
2022-09-10T19:35:56.495Z,1.10
2022-09-10T19:38:37.156Z,0.80
2022-09-10T19:41:06.071Z,1.10
2022-09-10T19:43:32.652Z,1.07
2022-09-10T19:45:59.286Z,1.10
2022-09-10T19:48:25.847Z,1.00
2022-09-10T19:50:52.337Z,1.00
2022-09-10T19:53:18.832Z,0.90
2022-09-10T19:55:46.882Z,0.80
2022-09-10T19:58:13.371Z,0.87
2022-09-10T20:00:46.747Z,0.90
2022-09-10T20:03:13.994Z,0.80
2022-09-10T20:05:40.612Z,1.20
2022-09-10T20:08:07.087Z,0.97
2022-09-10T20:10:33.555Z,0.90
2022-09-10T20:13:01.406Z,0.90
2022-09-10T20:15:27.874Z,0.97
2022-09-10T20:17:54.338Z,1.20
2022-09-10T20:20:20.796Z,1.07
2022-09-10T20:22:47.275Z,1.10
2022-09-10T20:25:13.833Z,1.10
2022-09-10T20:27:40.436Z,1.17
2022-09-10T20:30:09.284Z,0.80
2022-09-10T20:32:35.771Z,1.20
2022-09-10T20:35:02.264Z,1.13
2022-09-10T20:37:28.718Z,1.50
2022-09-10T20:39:55.210Z,0.90
2022-09-10T20:42:21.932Z,1.10
2022-09-10T20:44:48.422Z,1.07
2022-09-10T20:47:16.211Z,1.10
2022-09-10T20:49:42.712Z,1.17
2022-09-10T20:52:09.170Z,1.07
2022-09-10T20:54:35.641Z,1.30
2022-09-10T20:57:02.156Z,1.00
2022-09-10T20:59:28.626Z,1.10
2022-09-10T21:01:55.274Z,1.50
2022-09-10T21:04:23.135Z,1.30
2022-09-10T21:06:49.658Z,1.03
2022-09-10T21:09:16.293Z,1.07
2022-09-10T21:11:42.792Z,1.20
2022-09-10T21:14:11.137Z,1.10
2022-09-10T21:16:39.612Z,1.40
2022-09-10T21:19:07.595Z,1.23
2022-09-10T21:21:36.620Z,1.47
2022-09-10T21:24:06.124Z,1.23
2022-09-10T21:26:34.603Z,1.20
2022-09-10T21:29:02.976Z,1.10
2022-09-10T21:31:30.463Z,1.10
2022-09-10T21:34:02.449Z,1.30
2022-09-10T21:36:30.789Z,1.20
2022-09-10T21:39:00.313Z,1.20
2022-09-10T21:41:29.383Z,1.10
2022-09-10T21:43:55.867Z,1.20
2022-09-10T21:46:22.347Z,1.00
2022-09-10T21:48:48.869Z,1.20
2022-09-10T21:51:17.750Z,1.20
2022-09-10T21:53:45.325Z,1.40
2022-09-10T21:56:14.903Z,1.13
2022-09-10T21:58:42.610Z,1.07
2022-09-10T22:01:10.547Z,1.10
2022-09-10T22:03:37.431Z,1.10
2022-09-10T22:06:06.091Z,1.20
2022-09-10T22:08:33.068Z,0.97
2022-09-10T22:11:03.590Z,1.10
2022-09-10T22:13:31.511Z,1.03
2022-09-10T22:15:58.002Z,1.27
2022-09-10T22:18:24.583Z,1.10
2022-09-10T22:20:56.104Z,0.93
2022-09-10T22:23:22.579Z,0.80
2022-09-10T22:25:49.052Z,1.00
2022-09-10T22:28:15.508Z,1.00
2022-09-10T22:30:43.357Z,0.63
2022-09-10T22:33:09.806Z,0.90
2022-09-10T22:35:36.301Z,0.90
2022-09-10T22:38:02.776Z,0.70
2022-09-10T22:40:29.279Z,1.20
2022-09-10T22:42:55.761Z,1.07
2022-09-10T22:45:22.233Z,0.77
2022-09-10T22:47:50.174Z,0.70
2022-09-10T22:50:17.015Z,0.87
2022-09-10T22:52:43.470Z,1.00
2022-09-10T22:55:10.255Z,0.70
2022-09-10T22:57:36.911Z,0.90
2022-09-10T23:00:04.073Z,0.90
2022-09-10T23:02:30.584Z,0.80
2022-09-10T23:04:58.433Z,0.80
2022-09-10T23:07:24.938Z,0.60
2022-09-10T23:09:51.407Z,0.60
2022-09-10T23:12:17.971Z,0.60
2022-09-10T23:14:44.422Z,0.80
2022-09-10T23:17:10.908Z,0.60
2022-09-10T23:19:37.365Z,0.90
2022-09-10T23:22:05.249Z,0.80
2022-09-10T23:24:31.760Z,0.90
2022-09-10T23:26:58.296Z,0.70
2022-09-10T23:29:24.773Z,0.80
2022-09-10T23:31:51.533Z,1.10
2022-09-10T23:34:19.164Z,0.73
2022-09-10T23:36:47.900Z,0.63
2022-09-10T23:39:17.739Z,0.83
2022-09-10T23:41:44.347Z,0.80
2022-09-10T23:44:10.948Z,0.80
2022-09-10T23:46:37.985Z,1.07
2022-09-10T23:49:05.375Z,0.80
2022-09-10T23:51:31.833Z,0.80
2022-09-10T23:53:58.301Z,0.70
2022-09-10T23:56:26.532Z,0.80
2022-09-10T23:58:53.034Z,0.90
